createdAt,value
2023-04-08T00:01:26.195Z,13.17
2023-04-08T00:03:54.389Z,12.83
2023-04-08T00:06:22.232Z,13.17
2023-04-08T00:08:50.237Z,12.97
2023-04-08T00:11:19.561Z,12.37
2023-04-08T00:13:47.334Z,12.50
2023-04-08T00:16:15.316Z,12.53
2023-04-08T00:18:43.254Z,12.80
2023-04-08T00:21:10.994Z,12.00
2023-04-08T00:23:38.784Z,13.77
2023-04-08T00:26:06.616Z,12.13
2023-04-08T00:28:35.767Z,13.73
2023-04-08T00:31:03.562Z,13.30
2023-04-08T00:33:31.351Z,12.33
2023-04-08T00:35:59.183Z,12.67
2023-04-08T00:38:27.012Z,12.93
2023-04-08T00:40:54.785Z,13.50
2023-04-08T00:43:22.570Z,13.73
2023-04-08T00:45:51.771Z,13.23
2023-04-08T00:48:19.688Z,13.50
2023-04-08T00:50:47.497Z,12.73
2023-04-08T00:53:17.236Z,12.57
2023-04-08T00:55:45.382Z,12.70
2023-04-08T00:58:14.033Z,12.67
2023-04-08T01:00:44.721Z,13.80
2023-04-08T01:03:18.171Z,12.00
2023-04-08T01:05:52.909Z,12.77
2023-04-08T01:08:20.926Z,14.47
2023-04-08T01:10:51.039Z,13.87
2023-04-08T01:13:19.655Z,14.93
2023-04-08T01:15:47.431Z,15.53
2023-04-08T01:18:17.367Z,13.53
2023-04-08T01:20:46.241Z,14.97
2023-04-08T01:23:17.669Z,14.23
2023-04-08T01:25:48.788Z,13.53
2023-04-08T01:28:17.998Z,14.00
2023-04-08T01:30:47.282Z,13.87
2023-04-08T01:33:16.683Z,13.47
2023-04-08T01:35:44.766Z,13.70
2023-04-08T01:38:15.855Z,13.33
2023-04-08T01:40:43.879Z,14.13
2023-04-08T01:43:15.014Z,13.00
2023-04-08T01:45:43.763Z,13.07
2023-04-08T01:48:12.197Z,13.40
2023-04-08T01:50:41.279Z,14.07
2023-04-08T01:53:10.118Z,14.03
2023-04-08T01:55:38.916Z,14.50
2023-04-08T01:58:08.779Z,14.53
2023-04-08T02:00:38.123Z,15.07
2023-04-08T02:03:07.064Z,14.73
2023-04-08T02:05:35.373Z,14.97
2023-04-08T02:08:03.227Z,14.23
2023-04-08T02:10:31.013Z,15.20
2023-04-08T02:12:58.805Z,14.67
2023-04-08T02:15:27.565Z,14.87
2023-04-08T02:17:57.688Z,13.23
2023-04-08T02:20:32.481Z,14.63
2023-04-08T02:23:05.200Z,15.00
2023-04-08T02:25:36.101Z,14.13
2023-04-08T02:28:05.842Z,15.43
2023-04-08T02:30:34.029Z,15.80
2023-04-08T02:33:04.668Z,15.20
2023-04-08T02:35:32.879Z,15.73
2023-04-08T02:38:00.761Z,15.50
2023-04-08T02:40:30.519Z,15.37
2023-04-08T02:42:58.978Z,15.43
2023-04-08T02:45:29.248Z,16.87
2023-04-08T02:47:57.081Z,15.17
2023-04-08T02:50:26.275Z,15.27
2023-04-08T02:52:54.020Z,15.80
2023-04-08T02:55:21.743Z,15.67
2023-04-08T02:57:49.890Z,15.20
2023-04-08T03:00:18.228Z,16.47
2023-04-08T03:02:46.354Z,15.60
2023-04-08T03:05:16.315Z,15.43
2023-04-08T03:07:45.505Z,15.70
2023-04-08T03:10:13.363Z,16.67
2023-04-08T03:12:41.174Z,16.20
2023-04-08T03:15:09.564Z,17.00
2023-04-08T03:17:37.364Z,15.47
2023-04-08T03:20:06.179Z,16.50
2023-04-08T03:22:34.386Z,16.67
2023-04-08T03:25:03.897Z,16.40
2023-04-08T03:27:31.879Z,15.90
2023-04-08T03:29:59.678Z,16.37
2023-04-08T03:32:27.570Z,16.23
2023-04-08T03:34:55.359Z,16.13
2023-04-08T03:37:23.176Z,16.37
2023-04-08T03:39:50.975Z,17.37
2023-04-08T03:42:20.159Z,16.83
2023-04-08T03:44:47.964Z,18.37
2023-04-08T03:47:15.750Z,18.30
2023-04-08T03:49:43.523Z,18.03
2023-04-08T03:52:11.321Z,18.23
2023-04-08T03:54:39.150Z,19.80
2023-04-08T03:57:06.901Z,18.27
2023-04-08T03:59:36.469Z,19.17
2023-04-08T04:02:04.455Z,19.10
2023-04-08T04:04:32.360Z,19.40
2023-04-08T04:07:00.177Z,19.33
2023-04-08T04:09:28.170Z,20.20
2023-04-08T04:11:55.966Z,19.53
2023-04-08T04:14:23.731Z,21.00
2023-04-08T04:16:52.904Z,19.20
2023-04-08T04:19:20.892Z,19.50
2023-04-08T04:21:48.646Z,20.37
2023-04-08T04:24:16.476Z,19.53
2023-04-08T04:26:44.203Z,19.20
2023-04-08T04:29:11.980Z,20.53
2023-04-08T04:31:39.953Z,20.70
2023-04-08T04:34:09.181Z,20.57
2023-04-08T04:36:36.939Z,20.17
2023-04-08T04:39:04.904Z,20.30
2023-04-08T04:41:32.691Z,18.70
2023-04-08T04:44:00.517Z,21.07
2023-04-08T04:46:28.354Z,19.60
2023-04-08T04:48:56.599Z,19.97
2023-04-08T04:51:26.554Z,20.43
2023-04-08T04:53:54.334Z,20.53
2023-04-08T04:56:22.309Z,21.03
2023-04-08T04:58:50.314Z,21.93
2023-04-08T05:01:18.228Z,22.50
2023-04-08T05:03:46.072Z,20.63
2023-04-08T05:06:13.931Z,22.33
2023-04-08T05:08:43.088Z,21.67
2023-04-08T05:11:11.217Z,22.50
2023-04-08T05:13:38.983Z,21.10
2023-04-08T05:16:07.425Z,22.53
2023-04-08T05:18:35.252Z,22.47
2023-04-08T05:21:03.125Z,23.30
2023-04-08T05:23:30.850Z,22.37
2023-04-08T05:26:00.009Z,22.83
2023-04-08T05:28:27.835Z,23.07
2023-04-08T05:30:56.073Z,23.97
2023-04-08T05:33:23.933Z,23.73
2023-04-08T05:35:51.688Z,23.27
2023-04-08T05:38:19.553Z,22.90
2023-04-08T05:40:47.347Z,23.20
2023-04-08T05:43:16.702Z,24.20
2023-04-08T05:45:44.456Z,22.50
2023-04-08T05:48:12.232Z,23.17
2023-04-08T05:50:40.057Z,22.10
2023-04-08T05:53:07.920Z,23.07
2023-04-08T05:55:35.835Z,23.10
2023-04-08T05:58:03.641Z,22.47
2023-04-08T06:00:32.778Z,21.30
2023-04-08T06:03:00.679Z,21.90
2023-04-08T06:05:28.685Z,22.50
2023-04-08T06:07:56.431Z,21.70
2023-04-08T06:10:24.507Z,22.30
2023-04-08T06:12:52.309Z,23.13
2023-04-08T06:15:21.274Z,66.27
2023-04-08T06:17:50.788Z,22.17
2023-04-08T06:20:18.646Z,21.63
2023-04-08T06:22:46.374Z,21.33
2023-04-08T06:25:14.217Z,21.63
2023-04-08T06:27:42.002Z,20.60
2023-04-08T06:30:10.814Z,20.43
2023-04-08T06:32:38.577Z,21.07
2023-04-08T06:35:09.097Z,19.67
2023-04-08T06:37:38.724Z,19.43
2023-04-08T06:40:07.830Z,20.40
2023-04-08T06:42:36.077Z,18.53
2023-04-08T06:45:03.967Z,18.50
2023-04-08T06:47:31.789Z,18.90
2023-04-08T06:49:59.625Z,18.07
2023-04-08T06:52:28.759Z,18.43
2023-04-08T06:54:56.530Z,18.80
2023-04-08T06:57:24.389Z,18.43
2023-04-08T06:59:53.516Z,19.97
2023-04-08T07:02:22.708Z,19.07
2023-04-08T07:04:50.834Z,17.90
2023-04-08T07:07:18.641Z,17.70
2023-04-08T07:09:47.761Z,18.57
2023-04-08T07:12:15.675Z,19.00
2023-04-08T07:14:43.448Z,17.03
2023-04-08T07:17:11.220Z,20.70
2023-04-08T07:19:39.025Z,17.13
2023-04-08T07:22:06.840Z,17.97
2023-04-08T07:24:34.892Z,18.63
2023-04-08T07:27:04.135Z,18.13
2023-04-08T07:29:32.344Z,17.53
2023-04-08T07:32:00.105Z,17.80
2023-04-08T07:34:27.867Z,29.50
2023-04-08T07:36:55.653Z,19.83
2023-04-08T07:39:23.383Z,31.43
2023-04-08T07:41:51.130Z,20.27
2023-04-08T07:44:20.291Z,27.13
2023-04-08T07:46:51.579Z,24.43
2023-04-08T07:49:19.482Z,22.13
2023-04-08T07:51:47.316Z,20.47
2023-04-08T07:54:17.441Z,19.87
2023-04-08T07:56:45.556Z,21.27
2023-04-08T07:59:13.671Z,20.27
2023-04-08T08:01:42.950Z,20.27
2023-04-08T08:04:10.934Z,20.60
2023-04-08T08:06:38.760Z,20.23
2023-04-08T08:09:06.569Z,20.47
2023-04-08T08:11:34.398Z,22.73
2023-04-08T08:14:02.173Z,21.67
2023-04-08T08:16:30.210Z,21.53
2023-04-08T08:18:59.647Z,19.80
2023-04-08T08:21:27.807Z,21.80
2023-04-08T08:23:56.919Z,19.87
2023-04-08T08:26:24.864Z,18.57
2023-04-08T08:28:52.627Z,17.83
2023-04-08T08:31:20.382Z,19.93
2023-04-08T08:33:48.714Z,18.57
2023-04-08T08:36:18.184Z,18.73
2023-04-08T08:38:46.141Z,18.90
2023-04-08T08:41:13.895Z,19.00
2023-04-08T08:43:41.676Z,18.03
2023-04-08T08:46:11.972Z,18.27
2023-04-08T08:48:40.816Z,17.60
2023-04-08T08:51:10.673Z,18.23
2023-04-08T08:53:40.242Z,18.40
2023-04-08T08:58:41.042Z,16.33
2023-04-08T09:01:34.343Z,20.63
2023-04-08T09:04:09.950Z,20.30
2023-04-08T09:06:37.931Z,34.93
2023-04-08T09:09:10.584Z,17.00
2023-04-08T09:11:40.552Z,17.30
2023-04-08T09:14:19.170Z,34.30
2023-04-08T09:16:47.334Z,16.67
2023-04-08T09:19:15.526Z,24.17
2023-04-08T09:21:43.882Z,17.20
2023-04-08T09:24:30.799Z,15.60
2023-04-08T09:26:58.602Z,16.07
2023-04-08T09:29:30.533Z,16.30
2023-04-08T09:32:02.524Z,15.50
2023-04-08T09:34:32.606Z,15.90
2023-04-08T09:37:00.868Z,16.10
2023-04-08T09:39:30.803Z,14.57
2023-04-08T09:42:01.198Z,15.93
2023-04-08T09:44:30.539Z,15.47
2023-04-08T09:47:03.164Z,14.43
2023-04-08T09:49:35.614Z,14.67
2023-04-08T09:52:08.793Z,14.67
2023-04-08T09:54:45.477Z,15.00
2023-04-08T09:57:16.362Z,15.10
2023-04-08T09:59:51.310Z,15.47
2023-04-08T10:02:26.776Z,15.80
2023-04-08T10:04:56.172Z,15.47
2023-04-08T10:07:24.029Z,17.53
2023-04-08T10:09:53.504Z,14.97
2023-04-08T10:12:21.323Z,15.30
2023-04-08T10:15:22.556Z,15.23
2023-04-08T10:17:50.523Z,15.87
2023-04-08T10:20:45.937Z,14.67
2023-04-08T10:23:14.636Z,15.23
2023-04-08T10:25:45.293Z,14.27
2023-04-08T10:28:34.013Z,14.17
2023-04-08T10:31:03.092Z,13.37
2023-04-08T10:33:37.258Z,14.33
2023-04-08T10:36:11.505Z,13.07
2023-04-08T10:38:39.590Z,12.97
2023-04-08T10:41:08.841Z,13.33
2023-04-08T10:43:37.193Z,12.13
2023-04-08T10:46:05.594Z,12.40
2023-04-08T10:48:33.773Z,13.00
2023-04-08T10:51:08.468Z,12.73
2023-04-08T10:53:37.123Z,13.87
2023-04-08T10:56:06.264Z,12.80
2023-04-08T10:58:36.343Z,13.00
2023-04-08T11:01:05.813Z,12.63
2023-04-08T11:03:34.826Z,12.67
2023-04-08T11:06:03.119Z,12.57
2023-04-08T11:08:31.085Z,12.97
2023-04-08T11:11:01.256Z,12.20
2023-04-08T11:13:29.306Z,12.17
2023-04-08T11:16:00.119Z,11.97
2023-04-08T11:18:28.655Z,12.20
2023-04-08T11:20:58.346Z,13.27
2023-04-08T11:23:27.981Z,12.80
2023-04-08T11:25:56.197Z,12.33
2023-04-08T11:28:24.148Z,11.80
2023-04-08T11:30:52.029Z,11.63
2023-04-08T11:33:21.638Z,11.80
2023-04-08T11:35:53.379Z,11.03
2023-04-08T11:38:23.818Z,11.23
2023-04-08T11:40:54.186Z,11.07
2023-04-08T11:43:22.108Z,10.40
2023-04-08T11:45:49.973Z,12.03
2023-04-08T11:48:18.394Z,10.70
2023-04-08T11:50:47.533Z,10.50
2023-04-08T11:53:19.847Z,10.23
2023-04-08T11:55:48.537Z,9.77
2023-04-08T11:58:16.530Z,9.97
2023-04-08T12:00:45.649Z,9.23
2023-04-08T12:03:13.639Z,9.47
2023-04-08T12:05:42.625Z,10.87
2023-04-08T12:08:11.856Z,9.70
2023-04-08T12:10:39.645Z,8.33
2023-04-08T12:13:07.430Z,13.20
2023-04-08T12:15:35.184Z,11.07
2023-04-08T12:18:03.152Z,14.73
2023-04-08T12:20:31.012Z,12.27
2023-04-08T12:22:58.791Z,9.13
2023-04-08T12:25:31.401Z,11.23
2023-04-08T12:27:59.217Z,9.00
2023-04-08T12:30:26.996Z,11.03
2023-04-08T12:32:55.423Z,13.10
2023-04-08T12:35:23.334Z,8.20
2023-04-08T12:37:51.184Z,8.63
2023-04-08T12:40:19.238Z,10.47
2023-04-08T12:42:48.623Z,9.10
2023-04-08T12:45:16.603Z,8.40
2023-04-08T12:47:44.431Z,8.37
2023-04-08T12:50:12.261Z,8.10
2023-04-08T12:52:40.098Z,9.07
2023-04-08T12:55:08.662Z,8.70
2023-04-08T12:57:36.419Z,8.60
2023-04-08T13:00:06.496Z,10.83
2023-04-08T13:02:34.336Z,10.60
2023-04-08T13:05:02.187Z,8.83
2023-04-08T13:07:30.028Z,10.33
2023-04-08T13:09:57.752Z,10.27
2023-04-08T13:12:25.564Z,9.10
2023-04-08T13:14:53.383Z,9.67
2023-04-08T13:17:22.876Z,9.07
2023-04-08T13:19:51.229Z,8.90
2023-04-08T13:22:19.128Z,9.40
2023-04-08T13:24:46.927Z,8.63
2023-04-08T13:27:14.752Z,9.83
2023-04-08T13:29:42.617Z,9.03
2023-04-08T13:32:10.461Z,8.67
2023-04-08T13:34:39.597Z,9.10
2023-04-08T13:37:07.404Z,8.93
2023-04-08T13:39:35.646Z,8.50
2023-04-08T13:42:03.533Z,8.10
2023-04-08T13:44:33.166Z,6.87
2023-04-08T13:47:00.959Z,8.03
2023-04-08T13:49:28.806Z,7.17
2023-04-08T13:51:57.927Z,7.10
2023-04-08T13:54:25.904Z,7.00
2023-04-08T13:56:53.721Z,7.87
2023-04-08T13:59:21.514Z,7.83
2023-04-08T14:01:53.750Z,7.90
2023-04-08T14:04:21.858Z,7.90
2023-04-08T14:06:51.047Z,7.67
2023-04-08T14:09:20.704Z,7.77
2023-04-08T14:11:48.467Z,8.30
2023-04-08T14:14:16.214Z,7.77
2023-04-08T14:16:44.058Z,7.17
2023-04-08T14:19:11.871Z,7.37
2023-04-08T14:21:39.730Z,7.50
2023-04-08T14:24:07.598Z,7.50
2023-04-08T14:26:36.775Z,7.30
2023-04-08T14:29:05.471Z,6.70
2023-04-08T14:31:33.328Z,6.73
2023-04-08T14:34:01.453Z,6.30
2023-04-08T14:36:30.280Z,6.30
2023-04-08T14:38:58.118Z,6.20
2023-04-08T14:41:27.290Z,6.07
2023-04-08T14:43:56.524Z,6.37
2023-04-08T14:46:26.485Z,7.33
2023-04-08T14:48:55.923Z,6.73
2023-04-08T14:51:23.687Z,6.30
2023-04-08T14:53:51.677Z,7.00
2023-04-08T14:56:19.509Z,6.40
2023-04-08T14:58:47.296Z,6.03
2023-04-08T15:01:16.421Z,6.40
2023-04-08T15:03:44.306Z,5.93
2023-04-08T15:06:16.916Z,6.40
2023-04-08T15:08:45.823Z,6.20
2023-04-08T15:11:13.768Z,6.77
2023-04-08T15:13:41.729Z,6.87
2023-04-08T15:16:09.577Z,6.30
2023-04-08T15:18:38.737Z,6.90
2023-04-08T15:21:06.602Z,7.47
2023-04-08T15:23:34.368Z,6.70
2023-04-08T15:26:03.426Z,7.37
2023-04-08T15:28:31.188Z,7.07
2023-04-08T15:30:59.066Z,6.60
2023-04-08T15:33:27.121Z,6.83
2023-04-08T15:35:57.493Z,6.70
2023-04-08T15:38:25.557Z,7.43
2023-04-08T15:40:53.563Z,6.53
2023-04-08T15:43:21.396Z,6.00
2023-04-08T15:45:49.152Z,6.17
2023-04-08T15:48:16.970Z,6.83
2023-04-08T15:50:44.838Z,6.00
2023-04-08T15:53:13.998Z,5.97
2023-04-08T15:55:42.208Z,6.13
2023-04-08T15:58:10.026Z,5.67
2023-04-08T16:00:37.843Z,10.37
2023-04-08T16:03:08.435Z,17.80
2023-04-08T16:05:39.226Z,13.77
2023-04-08T16:08:07.699Z,9.50
2023-04-08T16:10:37.329Z,7.77
2023-04-08T16:13:05.116Z,6.47
2023-04-08T16:15:34.147Z,5.37
2023-04-08T16:18:03.094Z,5.53
2023-04-08T16:20:30.890Z,5.83
2023-04-08T16:22:58.633Z,6.87
2023-04-08T16:25:28.175Z,5.87
2023-04-08T16:27:57.471Z,5.60
2023-04-08T16:30:25.303Z,7.77
2023-04-08T16:32:53.134Z,6.50
2023-04-08T16:35:22.348Z,6.50
2023-04-08T16:37:50.192Z,7.63
2023-04-08T16:40:18.286Z,5.63
2023-04-08T16:42:46.121Z,7.80
2023-04-08T16:45:15.778Z,6.43
2023-04-08T16:47:44.475Z,7.47
2023-04-08T16:50:12.484Z,6.10
2023-04-08T16:52:40.266Z,5.53
2023-04-08T16:55:09.198Z,5.90
2023-04-08T16:57:36.974Z,5.40
2023-04-08T17:00:05.232Z,5.53
2023-04-08T17:02:34.478Z,5.80
2023-04-08T17:05:02.315Z,5.50
2023-04-08T17:07:31.202Z,6.10
2023-04-08T17:09:59.043Z,5.20
2023-04-08T17:12:26.839Z,5.73
2023-04-08T17:14:54.678Z,5.50
2023-04-08T17:17:22.480Z,6.00
2023-04-08T17:19:52.003Z,5.10
2023-04-08T17:22:19.751Z,5.70
2023-04-08T17:24:48.187Z,5.97
2023-04-08T17:27:16.160Z,5.50
2023-04-08T17:29:43.956Z,6.10
2023-04-08T17:32:12.518Z,6.00
2023-04-08T17:34:41.016Z,6.17
2023-04-08T17:37:10.481Z,5.03
2023-04-08T17:39:40.931Z,5.70
2023-04-08T17:42:08.963Z,5.80
2023-04-08T17:44:36.903Z,5.60
2023-04-08T17:47:04.972Z,5.67
2023-04-08T17:49:32.792Z,6.03
2023-04-08T17:52:00.640Z,6.47
2023-04-08T17:54:31.468Z,5.77
2023-04-08T17:56:59.263Z,6.37
2023-04-08T17:59:27.071Z,6.73
2023-04-08T18:01:54.968Z,7.40
2023-04-08T18:04:22.954Z,6.47
2023-04-08T18:06:50.795Z,6.93
2023-04-08T18:09:18.556Z,6.50
2023-04-08T18:11:47.639Z,6.50
2023-04-08T18:14:15.418Z,5.97
2023-04-08T18:16:43.282Z,6.87
2023-04-08T18:19:11.069Z,6.90
2023-04-08T18:21:38.908Z,7.10
2023-04-08T18:24:08.722Z,7.23
2023-04-08T18:26:37.106Z,6.90
2023-04-08T18:29:06.761Z,7.47
2023-04-08T18:31:34.648Z,7.03
2023-04-08T18:34:03.186Z,7.33
2023-04-08T18:36:31.742Z,7.20
2023-04-08T18:38:59.488Z,7.20
2023-04-08T18:41:28.018Z,7.30
2023-04-08T18:43:56.003Z,7.57
2023-04-08T18:46:25.256Z,7.77
2023-04-08T18:48:53.066Z,8.27
2023-04-08T18:51:20.850Z,8.73
2023-04-08T18:53:49.855Z,8.10
2023-04-08T18:56:18.004Z,7.93
2023-04-08T18:58:46.326Z,8.77
2023-04-08T19:01:14.372Z,8.40
2023-04-08T19:03:44.356Z,8.13
2023-04-08T19:06:13.040Z,7.97
2023-04-08T19:08:41.491Z,8.57
2023-04-08T19:11:09.252Z,8.23
2023-04-08T19:13:37.075Z,8.77
2023-04-08T19:16:05.149Z,8.23
2023-04-08T19:18:32.980Z,7.87
2023-04-08T19:21:03.601Z,7.30
2023-04-08T19:23:32.108Z,7.60
2023-04-08T19:25:59.915Z,7.43
2023-04-08T19:28:27.633Z,7.60
2023-04-08T19:30:55.423Z,7.67
2023-04-08T19:33:23.668Z,7.10
2023-04-08T19:35:51.483Z,7.30
2023-04-08T19:38:20.624Z,6.80
2023-04-08T19:40:49.254Z,6.97
2023-04-08T19:43:17.918Z,7.30
2023-04-08T19:45:46.321Z,10.17
2023-04-08T19:48:14.226Z,7.07
2023-04-08T19:50:42.745Z,6.50
2023-04-08T19:53:10.482Z,5.30
2023-04-08T19:55:39.817Z,6.03
2023-04-08T19:58:07.900Z,5.53
2023-04-08T20:00:37.408Z,5.60
2023-04-08T20:03:05.859Z,5.03
2023-04-08T20:05:33.872Z,4.90
2023-04-08T20:08:01.656Z,4.67
2023-04-08T20:10:29.571Z,4.57
2023-04-08T20:12:58.698Z,4.37
2023-04-08T20:15:26.594Z,4.37
2023-04-08T20:17:54.462Z,4.63
2023-04-08T20:20:22.911Z,5.03
2023-04-08T20:22:50.855Z,4.47
2023-04-08T20:25:18.752Z,7.50
2023-04-08T20:27:46.599Z,4.13
2023-04-08T20:30:15.848Z,5.17
2023-04-08T20:32:43.633Z,4.60
2023-04-08T20:35:11.830Z,4.43
2023-04-08T20:37:39.566Z,4.33
2023-04-08T20:40:09.206Z,4.50
2023-04-08T20:42:38.610Z,4.50
2023-04-08T20:45:07.543Z,4.60
2023-04-08T20:47:36.714Z,4.40
2023-04-08T20:50:04.911Z,4.23
2023-04-08T20:52:32.724Z,4.43
2023-04-08T20:55:00.629Z,4.20
2023-04-08T20:57:28.414Z,4.30
2023-04-08T20:59:56.144Z,4.40
2023-04-08T21:02:24.342Z,4.60
2023-04-08T21:04:53.658Z,4.60
2023-04-08T21:07:32.874Z,4.70
2023-04-08T21:10:01.152Z,4.90
2023-04-08T21:12:35.029Z,4.60
2023-04-08T21:15:02.758Z,4.60
2023-04-08T21:17:31.279Z,4.80
2023-04-08T21:20:00.521Z,4.67
2023-04-08T21:22:28.886Z,4.70
2023-04-08T21:24:57.891Z,4.10
2023-04-08T21:27:25.666Z,4.97
2023-04-08T21:29:53.495Z,4.33
2023-04-08T21:32:21.257Z,4.40
2023-04-08T21:34:49.060Z,4.37
2023-04-08T21:37:18.339Z,4.50
2023-04-08T21:39:46.809Z,4.63
2023-04-08T21:42:14.556Z,4.20
2023-04-08T21:44:42.478Z,4.77
2023-04-08T21:47:10.744Z,4.30
2023-04-08T21:49:38.520Z,4.87
2023-04-08T21:52:06.854Z,4.43
2023-04-08T21:54:36.460Z,4.50
2023-04-08T21:57:04.634Z,3.87
2023-04-08T21:59:32.380Z,4.83
2023-04-08T22:02:03.919Z,4.57
2023-04-08T22:04:31.812Z,4.47
2023-04-08T22:06:59.795Z,4.30
2023-04-08T22:09:27.890Z,4.50
2023-04-08T22:11:57.967Z,4.03
2023-04-08T22:14:26.149Z,5.00
2023-04-08T22:16:54.706Z,4.20
2023-04-08T22:19:22.505Z,4.40
2023-04-08T22:21:51.255Z,4.27
2023-04-08T22:24:19.572Z,4.13
2023-04-08T22:26:47.433Z,4.27
2023-04-08T22:29:17.351Z,4.10
2023-04-08T22:31:45.578Z,4.27
2023-04-08T22:34:13.681Z,4.00
2023-04-08T22:36:41.572Z,4.00
2023-04-08T22:39:09.579Z,4.13
2023-04-08T22:41:37.409Z,4.57
2023-04-08T22:44:05.441Z,4.30
2023-04-08T22:46:35.044Z,4.17
2023-04-08T22:49:03.325Z,4.07
2023-04-08T22:51:31.046Z,4.40
2023-04-08T22:53:59.261Z,4.30
2023-04-08T22:56:28.937Z,4.10
2023-04-08T22:58:56.796Z,4.37
2023-04-08T23:01:24.757Z,4.20
2023-04-08T23:03:54.395Z,4.00
2023-04-08T23:06:22.492Z,4.50
2023-04-08T23:08:50.539Z,4.50
2023-04-08T23:11:19.053Z,4.20
2023-04-08T23:13:47.039Z,3.97
2023-04-08T23:16:14.902Z,4.23
2023-04-08T23:18:43.139Z,4.13
2023-04-08T23:21:12.338Z,4.23
2023-04-08T23:23:40.100Z,4.07
2023-04-08T23:26:07.945Z,4.10
2023-04-08T23:28:35.766Z,4.37
2023-04-08T23:31:05.340Z,3.80
2023-04-08T23:33:33.132Z,4.10
2023-04-08T23:36:00.898Z,4.13
2023-04-08T23:38:30.039Z,3.73
2023-04-08T23:40:57.759Z,4.20
2023-04-08T23:43:25.533Z,4.20
2023-04-08T23:45:53.260Z,4.00
2023-04-08T23:48:21.007Z,4.50
2023-04-08T23:50:52.315Z,4.20
2023-04-08T23:53:20.273Z,4.00
2023-04-08T23:55:49.411Z,4.13
2023-04-08T23:58:17.277Z,4.07
